createdAt,value
2018-09-07T00:00:05.405Z,15.01
2018-09-07T00:01:05.417Z,15.01
2018-09-07T00:02:05.384Z,15.00
2018-09-07T00:03:05.371Z,14.97
2018-09-07T00:04:05.355Z,14.94
2018-09-07T00:05:05.342Z,14.95
2018-09-07T00:06:05.329Z,15.09
2018-09-07T00:07:05.321Z,15.01
2018-09-07T00:08:05.303Z,15.01
2018-09-07T00:09:05.292Z,15.04
2018-09-07T00:10:05.284Z,15.04
2018-09-07T00:11:05.270Z,14.95
2018-09-07T00:12:05.358Z,15.01
2018-09-07T00:13:05.244Z,14.97
2018-09-07T00:14:05.229Z,14.95
2018-09-07T00:15:05.220Z,15.04
2018-09-07T00:16:05.203Z,14.93
2018-09-07T00:17:05.196Z,14.85
2018-09-07T00:18:05.279Z,14.95
2018-09-07T00:19:05.165Z,15.07
2018-09-07T00:20:05.156Z,14.95
2018-09-07T00:21:05.144Z,14.98
2018-09-07T00:22:05.128Z,15.03
2018-09-07T00:23:05.119Z,14.98
2018-09-07T00:24:05.107Z,14.93
2018-09-07T00:25:05.093Z,14.90
2018-09-07T00:26:05.080Z,14.83
2018-09-07T00:27:05.068Z,14.90
2018-09-07T00:28:05.054Z,14.72
2018-09-07T00:29:05.041Z,14.69
2018-09-07T00:30:05.126Z,14.67
2018-09-07T00:31:05.017Z,14.74
2018-09-07T00:32:05.005Z,14.67
2018-09-07T00:33:04.988Z,14.69
2018-09-07T00:34:04.978Z,14.69
2018-09-07T00:35:04.966Z,14.64
2018-09-07T00:36:04.949Z,14.64
2018-09-07T00:37:04.940Z,14.69
2018-09-07T00:38:04.923Z,14.64
2018-09-07T00:39:04.915Z,14.74
2018-09-07T00:40:04.901Z,14.66
2018-09-07T00:41:04.886Z,14.64
2018-09-07T00:42:04.873Z,14.67
2018-09-07T00:43:04.860Z,14.69
2018-09-07T00:44:04.849Z,14.69
2018-09-07T00:45:04.837Z,14.67
2018-09-07T00:46:04.822Z,14.64
2018-09-07T00:47:04.807Z,14.71
2018-09-07T00:48:04.898Z,14.53
2018-09-07T00:49:04.786Z,14.49
2018-09-07T00:50:04.770Z,14.45
2018-09-07T00:51:04.760Z,14.46
2018-09-07T00:52:04.747Z,14.52
2018-09-07T00:53:04.733Z,14.48
2018-09-07T00:54:04.821Z,14.48
2018-09-07T00:55:04.708Z,14.59
2018-09-07T00:56:04.691Z,14.48
2018-09-07T00:57:04.682Z,14.46
2018-09-07T00:58:04.669Z,14.54
2018-09-07T00:59:04.652Z,14.54
2018-09-07T01:00:04.744Z,14.57
2018-09-07T01:01:04.630Z,14.54
2018-09-07T01:02:04.617Z,14.60
2018-09-07T01:03:04.605Z,14.57
2018-09-07T01:04:04.587Z,14.52
2018-09-07T01:05:04.574Z,14.64
2018-09-07T01:06:04.563Z,14.54
2018-09-07T01:07:04.553Z,14.61
2018-09-07T01:08:04.539Z,14.59
2018-09-07T01:09:04.523Z,14.57
2018-09-07T01:10:04.514Z,14.71
2018-09-07T01:11:04.500Z,14.64
2018-09-07T01:12:04.685Z,14.56
2018-09-07T01:13:04.471Z,14.49
2018-09-07T01:14:04.460Z,14.46
2018-09-07T01:15:04.491Z,14.42
2018-09-07T01:16:04.436Z,14.42
2018-09-07T01:17:04.424Z,14.48
2018-09-07T01:18:04.407Z,14.42
2018-09-07T01:19:04.393Z,14.46
2018-09-07T01:20:04.381Z,14.31
2018-09-07T01:21:04.371Z,14.34
2018-09-07T01:22:04.355Z,14.36
2018-09-07T01:23:04.344Z,14.41
2018-09-07T01:24:04.337Z,14.38
2018-09-07T01:25:04.319Z,14.45
2018-09-07T01:26:04.315Z,14.42
2018-09-07T01:27:04.293Z,14.49
2018-09-07T01:28:04.277Z,14.48
2018-09-07T01:29:04.263Z,14.54
2018-09-07T01:30:04.254Z,14.52
2018-09-07T01:31:04.241Z,14.57
2018-09-07T01:32:04.230Z,14.57
2018-09-07T01:33:04.214Z,14.60
2018-09-07T01:34:04.199Z,14.54
2018-09-07T01:35:04.186Z,14.64
2018-09-07T01:36:04.172Z,14.57
2018-09-07T01:37:04.163Z,14.60
2018-09-07T01:38:04.146Z,14.60
2018-09-07T01:39:04.138Z,14.59
2018-09-07T01:40:04.126Z,14.56
2018-09-07T01:41:04.112Z,14.64
2018-09-07T01:42:04.196Z,14.61
2018-09-07T01:43:04.082Z,14.69
2018-09-07T01:44:04.073Z,14.72
2018-09-07T01:45:04.062Z,14.72
2018-09-07T01:46:04.047Z,14.71
2018-09-07T01:47:04.030Z,14.71
2018-09-07T01:48:04.122Z,14.61
2018-09-07T01:49:04.010Z,14.63
2018-09-07T01:50:03.992Z,14.63
2018-09-07T01:51:04.023Z,14.66
2018-09-07T01:52:03.966Z,14.66
2018-09-07T01:53:03.956Z,14.48
2018-09-07T01:54:03.943Z,14.60
2018-09-07T01:55:03.930Z,14.53
2018-09-07T01:56:03.915Z,14.46
2018-09-07T01:57:03.901Z,14.56
2018-09-07T01:58:03.886Z,14.64
2018-09-07T01:59:03.878Z,14.66
2018-09-07T02:00:03.866Z,14.71
2018-09-07T02:01:03.848Z,14.71
2018-09-07T02:02:03.835Z,14.72
2018-09-07T02:03:03.824Z,14.74
2018-09-07T02:04:03.815Z,14.75
2018-09-07T02:05:03.796Z,14.66
2018-09-07T02:06:03.883Z,14.66
2018-09-07T02:07:03.775Z,14.69
2018-09-07T02:08:03.757Z,14.67
2018-09-07T02:09:03.746Z,14.66
2018-09-07T02:10:03.737Z,14.66
2018-09-07T02:11:03.723Z,14.71
2018-09-07T02:12:03.811Z,14.72
2018-09-07T02:13:03.695Z,14.67
2018-09-07T02:14:03.689Z,14.75
2018-09-07T02:15:03.670Z,14.71
2018-09-07T02:16:03.657Z,14.83
2018-09-07T02:17:03.642Z,14.83
2018-09-07T02:18:03.634Z,14.69
2018-09-07T02:19:03.623Z,14.66
2018-09-07T02:20:03.608Z,14.67
2018-09-07T02:21:03.592Z,14.75
2018-09-07T02:22:03.579Z,14.74
2018-09-07T02:23:03.568Z,14.67
2018-09-07T02:24:03.652Z,14.64
2018-09-07T02:25:03.544Z,14.64
2018-09-07T02:26:03.532Z,14.67
2018-09-07T02:27:03.519Z,14.64
2018-09-07T02:28:03.505Z,14.63
2018-09-07T02:29:03.487Z,14.61
2018-09-07T02:30:03.480Z,14.67
2018-09-07T02:31:03.463Z,14.67
2018-09-07T02:32:03.453Z,14.71
2018-09-07T02:33:03.438Z,14.66
2018-09-07T02:34:03.430Z,14.63
2018-09-07T02:35:03.413Z,14.61
2018-09-07T02:36:03.499Z,14.60
2018-09-07T02:37:03.385Z,14.64
2018-09-07T02:38:03.377Z,14.52
2018-09-07T02:39:03.360Z,14.53
2018-09-07T02:40:03.349Z,14.39
2018-09-07T02:41:03.339Z,14.54
2018-09-07T02:42:03.322Z,14.52
2018-09-07T02:43:03.312Z,14.38
2018-09-07T02:44:03.299Z,14.42
2018-09-07T02:45:03.286Z,14.35
2018-09-07T02:46:03.275Z,14.36
2018-09-07T02:47:03.263Z,14.44
2018-09-07T02:48:03.247Z,14.41
2018-09-07T02:49:03.234Z,14.36
2018-09-07T02:50:03.224Z,14.31
2018-09-07T02:51:03.208Z,14.29
2018-09-07T02:52:03.195Z,14.30
2018-09-07T02:53:03.179Z,14.38
2018-09-07T02:54:03.166Z,14.30
2018-09-07T02:55:03.153Z,14.34
2018-09-07T02:56:03.138Z,14.34
2018-09-07T02:57:03.125Z,14.35
2018-09-07T02:58:03.120Z,14.35
2018-09-07T02:59:03.101Z,14.41
2018-09-07T03:00:03.088Z,14.34
2018-09-07T03:01:03.076Z,14.39
2018-09-07T03:02:03.068Z,14.30
2018-09-07T03:03:03.053Z,14.38
2018-09-07T03:04:03.035Z,14.34
2018-09-07T03:05:03.022Z,14.38
2018-09-07T03:06:03.109Z,14.36
2018-09-07T03:07:02.999Z,14.45
2018-09-07T03:08:02.982Z,14.30
2018-09-07T03:09:02.972Z,14.45
2018-09-07T03:10:02.962Z,14.35
2018-09-07T03:11:02.947Z,14.41
2018-09-07T03:12:02.930Z,14.48
2018-09-07T03:13:02.916Z,14.44
2018-09-07T03:14:02.904Z,14.39
2018-09-07T03:15:02.891Z,14.44
2018-09-07T03:16:02.885Z,14.48
2018-09-07T03:17:02.870Z,14.36
2018-09-07T03:18:02.952Z,14.39
2018-09-07T03:19:02.839Z,14.49
2018-09-07T03:20:02.834Z,14.45
2018-09-07T03:21:02.817Z,14.46
2018-09-07T03:22:02.800Z,14.48
2018-09-07T03:23:02.789Z,14.48
2018-09-07T03:24:02.880Z,14.46
2018-09-07T03:25:02.766Z,14.53
2018-09-07T03:26:02.750Z,14.57
2018-09-07T03:27:02.735Z,14.59
2018-09-07T03:28:02.726Z,14.46
2018-09-07T03:29:02.714Z,14.56
2018-09-07T03:30:02.801Z,14.53
2018-09-07T03:31:02.688Z,14.57
2018-09-07T03:32:02.675Z,14.56
2018-09-07T03:33:02.660Z,14.56
2018-09-07T03:34:02.650Z,14.64
2018-09-07T03:35:02.633Z,14.56
2018-09-07T03:36:02.619Z,14.56
2018-09-07T03:37:02.607Z,14.49
2018-09-07T03:38:02.599Z,14.53
2018-09-07T03:39:02.583Z,14.49
2018-09-07T03:40:02.572Z,14.49
2018-09-07T03:41:02.559Z,14.57
2018-09-07T03:42:02.546Z,14.45
2018-09-07T03:43:02.533Z,14.52
2018-09-07T03:44:02.520Z,14.46
2018-09-07T03:45:02.508Z,14.48
2018-09-07T03:46:02.492Z,14.56
2018-09-07T03:47:02.485Z,14.56
2018-09-07T03:48:02.669Z,14.61
2018-09-07T03:49:02.455Z,14.57
2018-09-07T03:50:02.439Z,14.54
2018-09-07T03:51:02.430Z,14.59
2018-09-07T03:52:02.412Z,14.53
2018-09-07T03:53:02.400Z,14.49
2018-09-07T03:54:02.393Z,14.49
2018-09-07T03:55:02.379Z,14.49
2018-09-07T03:56:02.365Z,14.49
2018-09-07T03:57:02.352Z,14.52
2018-09-07T03:58:02.342Z,14.57
2018-09-07T03:59:02.327Z,14.45
2018-09-07T04:00:02.414Z,14.49
2018-09-07T04:01:02.301Z,14.41
2018-09-07T04:02:02.288Z,14.52
2018-09-07T04:03:02.276Z,14.56
2018-09-07T04:04:02.264Z,14.52
2018-09-07T04:05:02.249Z,14.59
2018-09-07T04:06:02.337Z,14.59
2018-09-07T04:07:02.227Z,14.56
2018-09-07T04:08:02.215Z,14.48
2018-09-07T04:09:02.199Z,14.61
2018-09-07T04:10:02.188Z,14.57
2018-09-07T04:11:02.252Z,14.60
2018-09-07T04:12:02.310Z,14.60
2018-09-07T04:13:02.150Z,14.52
2018-09-07T04:14:02.135Z,14.60
2018-09-07T04:15:02.121Z,14.67
2018-09-07T04:16:02.109Z,14.54
2018-09-07T04:17:02.095Z,14.56
2018-09-07T04:18:02.082Z,14.60
2018-09-07T04:19:02.070Z,14.52
2018-09-07T04:20:02.056Z,14.46
2018-09-07T04:21:02.043Z,14.60
2018-09-07T04:22:02.027Z,14.49
2018-09-07T04:23:02.017Z,14.56
2018-09-07T04:24:02.005Z,14.64
2018-09-07T04:25:01.992Z,14.64
2018-09-07T04:26:01.983Z,14.69
2018-09-07T04:27:01.967Z,14.63
2018-09-07T04:28:01.949Z,14.67
2018-09-07T04:29:01.941Z,14.61
2018-09-07T04:30:02.034Z,14.61
2018-09-07T04:31:01.913Z,14.71
2018-09-07T04:32:01.898Z,14.66
2018-09-07T04:33:01.891Z,14.61
2018-09-07T04:34:01.878Z,14.61
2018-09-07T04:35:01.860Z,14.59
2018-09-07T04:36:01.848Z,14.69
2018-09-07T04:37:01.835Z,14.71
2018-09-07T04:38:01.822Z,14.61
2018-09-07T04:39:01.809Z,14.74
2018-09-07T04:40:01.798Z,14.64
2018-09-07T04:41:01.808Z,14.64
2018-09-07T04:42:01.922Z,14.69
2018-09-07T04:43:01.759Z,14.61
2018-09-07T04:44:01.751Z,14.67
2018-09-07T04:45:01.732Z,14.63
2018-09-07T04:46:01.725Z,14.64
2018-09-07T04:47:01.709Z,14.64
2018-09-07T04:48:01.946Z,14.69
2018-09-07T04:49:01.683Z,14.63
2018-09-07T04:50:01.669Z,14.67
2018-09-07T04:51:01.657Z,14.67
2018-09-07T04:52:01.644Z,14.69
2018-09-07T04:53:01.630Z,14.66
2018-09-07T04:54:01.719Z,14.72
2018-09-07T04:55:01.605Z,14.63
2018-09-07T04:56:01.593Z,14.66
2018-09-07T04:57:01.579Z,14.66
2018-09-07T04:58:01.621Z,14.56
2018-09-07T04:59:01.554Z,14.59
2018-09-07T05:00:01.541Z,14.71
2018-09-07T05:01:01.527Z,14.61
2018-09-07T05:02:01.517Z,14.74
2018-09-07T05:03:01.506Z,14.67
2018-09-07T05:04:01.488Z,14.72
2018-09-07T05:05:01.476Z,14.72
2018-09-07T05:06:01.467Z,14.69
2018-09-07T05:07:01.451Z,14.72
2018-09-07T05:08:01.439Z,14.69
2018-09-07T05:09:01.424Z,14.71
2018-09-07T05:10:01.412Z,14.69
2018-09-07T05:11:01.403Z,14.69
2018-09-07T05:12:01.537Z,14.69
2018-09-07T05:13:01.377Z,14.69
2018-09-07T05:14:01.362Z,14.69
2018-09-07T05:15:01.348Z,14.66
2018-09-07T05:16:01.334Z,14.63
2018-09-07T05:17:01.322Z,14.66
2018-09-07T05:18:01.309Z,14.66
2018-09-07T05:19:01.298Z,14.63
2018-09-07T05:20:01.284Z,14.71
2018-09-07T05:21:01.272Z,14.78
2018-09-07T05:22:01.322Z,14.69
2018-09-07T05:23:01.246Z,14.71
2018-09-07T05:24:01.434Z,14.69
2018-09-07T05:25:01.221Z,14.67
2018-09-07T05:26:01.208Z,14.71
2018-09-07T05:27:01.195Z,14.72
2018-09-07T05:28:01.181Z,14.64
2018-09-07T05:29:01.168Z,14.71
2018-09-07T05:30:01.156Z,14.69
2018-09-07T05:31:01.143Z,14.69
2018-09-07T05:32:01.133Z,14.71
2018-09-07T05:33:01.116Z,14.69
2018-09-07T05:34:01.117Z,14.61
2018-09-07T05:35:01.092Z,14.72
2018-09-07T05:36:01.179Z,14.74
2018-09-07T05:37:01.067Z,14.72
2018-09-07T05:38:01.053Z,14.67
2018-09-07T05:39:01.041Z,14.67
2018-09-07T05:40:01.027Z,14.85
2018-09-07T05:41:01.015Z,14.90
2018-09-07T05:42:01.101Z,14.82
2018-09-07T05:43:00.983Z,14.82
2018-09-07T05:44:00.975Z,14.79
2018-09-07T05:45:00.964Z,14.85
2018-09-07T05:46:00.950Z,14.82
2018-09-07T05:47:00.939Z,14.85
2018-09-07T05:48:01.019Z,14.79
2018-09-07T05:49:00.906Z,14.82
2018-09-07T05:50:00.899Z,14.83
2018-09-07T05:51:00.883Z,14.85
2018-09-07T05:52:00.868Z,14.93
2018-09-07T05:53:00.858Z,14.90
2018-09-07T05:54:00.848Z,14.93
2018-09-07T05:55:00.830Z,14.87
2018-09-07T05:56:00.824Z,14.80
2018-09-07T05:57:00.806Z,14.90
2018-09-07T05:58:00.799Z,14.85
2018-09-07T05:59:00.780Z,14.90
2018-09-07T06:00:00.766Z,14.86
2018-09-07T06:01:00.760Z,14.86
2018-09-07T06:02:00.740Z,14.87
2018-09-07T06:03:00.728Z,14.87
2018-09-07T06:04:00.715Z,14.87
2018-09-07T06:05:00.703Z,14.86
2018-09-07T06:06:00.690Z,14.90
2018-09-07T06:07:00.677Z,14.83
2018-09-07T06:08:00.669Z,14.79
2018-09-07T06:09:00.656Z,14.86
2018-09-07T06:10:00.639Z,14.79
2018-09-07T06:11:00.627Z,14.93
2018-09-07T06:12:00.713Z,14.83
2018-09-07T06:13:00.600Z,14.80
2018-09-07T06:14:00.593Z,14.80
2018-09-07T06:15:00.576Z,14.71
2018-09-07T06:16:00.569Z,14.67
2018-09-07T06:17:00.549Z,14.69
2018-09-07T06:18:00.536Z,14.74
2018-09-07T06:19:00.526Z,14.75
2018-09-07T06:20:00.511Z,14.82
2018-09-07T06:21:00.505Z,14.79
2018-09-07T06:22:00.490Z,14.82
2018-09-07T06:23:00.481Z,14.90
2018-09-07T06:24:00.565Z,14.86
2018-09-07T06:25:00.448Z,14.85
2018-09-07T06:26:00.441Z,14.85
2018-09-07T06:27:00.428Z,14.90
2018-09-07T06:28:00.415Z,14.82
2018-09-07T06:29:00.401Z,14.82
2018-09-07T06:30:00.491Z,14.79
2018-09-07T06:31:00.376Z,14.79
2018-09-07T06:32:00.359Z,14.79
2018-09-07T06:33:00.367Z,14.83
2018-09-07T06:34:00.332Z,14.83
2018-09-07T06:35:00.326Z,14.66
2018-09-07T06:36:00.306Z,14.69
2018-09-07T06:37:00.400Z,14.83
2018-09-07T06:38:00.281Z,14.72
2018-09-07T06:39:00.426Z,14.79
2018-09-07T06:40:00.261Z,14.83
2018-09-07T06:41:00.247Z,14.86
2018-09-07T06:42:00.235Z,14.82
2018-09-07T06:43:00.222Z,14.82
2018-09-07T06:44:00.204Z,14.82
2018-09-07T06:45:00.191Z,14.85
2018-09-07T06:46:00.186Z,14.80
2018-09-07T06:47:00.183Z,14.75
2018-09-07T06:48:00.152Z,14.64
2018-09-07T06:49:00.148Z,14.71
2018-09-07T06:50:00.128Z,14.64
2018-09-07T06:51:00.114Z,14.74
2018-09-07T06:52:00.104Z,14.71
2018-09-07T06:53:00.095Z,14.64
2018-09-07T06:54:00.078Z,14.69
2018-09-07T06:55:00.063Z,14.66
2018-09-07T06:56:00.058Z,14.67
2018-09-07T06:57:00.042Z,14.74
2018-09-07T06:58:00.024Z,14.74
2018-09-07T06:59:00.017Z,14.69
2018-09-07T07:00:00.099Z,14.78
2018-09-07T07:00:59.990Z,14.82
2018-09-07T07:01:59.973Z,14.74
2018-09-07T07:03:00.049Z,14.78
2018-09-07T07:03:59.946Z,14.83
2018-09-07T07:04:59.939Z,14.82
2018-09-07T07:05:59.921Z,14.80
2018-09-07T07:06:59.916Z,14.82
2018-09-07T07:07:59.895Z,14.82
2018-09-07T07:08:59.883Z,14.90
2018-09-07T07:09:59.876Z,14.83
2018-09-07T07:10:59.858Z,14.79
2018-09-07T07:11:59.844Z,14.90
2018-09-07T07:12:59.831Z,14.82
2018-09-07T07:13:59.826Z,14.82
2018-09-07T07:14:59.812Z,14.82
2018-09-07T07:15:59.799Z,14.74
2018-09-07T07:16:59.781Z,14.75
2018-09-07T07:17:59.769Z,14.71
2018-09-07T07:18:59.766Z,14.67
2018-09-07T07:19:59.742Z,14.71
2018-09-07T07:20:59.730Z,14.75
2018-09-07T07:21:59.729Z,14.67
2018-09-07T07:22:59.707Z,14.61
2018-09-07T07:23:59.690Z,14.66
2018-09-07T07:24:59.688Z,14.69
2018-09-07T07:25:59.665Z,14.67
2018-09-07T07:26:59.662Z,14.67
2018-09-07T07:27:59.648Z,14.83
2018-09-07T07:28:59.626Z,14.82
2018-09-07T07:29:59.764Z,14.85
2018-09-07T07:30:59.611Z,14.82
2018-09-07T07:31:59.588Z,14.85
2018-09-07T07:32:59.585Z,14.79
2018-09-07T07:33:59.573Z,14.86
2018-09-07T07:34:59.550Z,14.83
2018-09-07T07:35:59.549Z,14.79
2018-09-07T07:36:59.534Z,14.82
2018-09-07T07:37:59.512Z,14.83
2018-09-07T07:38:59.509Z,14.79
2018-09-07T07:39:59.495Z,14.82
2018-09-07T07:40:59.473Z,14.82
2018-09-07T07:41:59.463Z,14.82
2018-09-07T07:42:59.448Z,14.75
2018-09-07T07:43:59.435Z,14.86
2018-09-07T07:44:59.426Z,14.91
2018-09-07T07:45:59.412Z,14.83
2018-09-07T07:46:59.401Z,14.85
2018-09-07T07:47:59.469Z,14.98
2018-09-07T07:48:59.371Z,14.95
2018-09-07T07:49:59.363Z,14.94
2018-09-07T07:50:59.348Z,14.95
2018-09-07T07:51:59.333Z,14.95
2018-09-07T07:52:59.320Z,14.93
2018-09-07T07:53:59.508Z,14.79
2018-09-07T07:54:59.295Z,14.80
2018-09-07T07:55:59.285Z,14.82
2018-09-07T07:56:59.294Z,14.67
2018-09-07T07:57:59.256Z,14.83
2018-09-07T07:58:59.244Z,14.82
2018-09-07T07:59:59.231Z,14.82
2018-09-07T08:00:59.218Z,14.80
2018-09-07T08:01:59.209Z,14.82
2018-09-07T08:02:59.193Z,14.83
2018-09-07T08:03:59.182Z,14.82
2018-09-07T08:04:59.167Z,14.82
2018-09-07T08:05:59.255Z,14.87
2018-09-07T08:06:59.145Z,14.72
2018-09-07T08:07:59.129Z,14.60
2018-09-07T08:08:59.116Z,14.67
2018-09-07T08:09:59.105Z,14.54
2018-09-07T08:10:59.091Z,14.69
2018-09-07T08:11:59.177Z,14.75
2018-09-07T08:12:59.064Z,14.71
2018-09-07T08:13:59.052Z,14.66
2018-09-07T08:14:59.040Z,14.74
2018-09-07T08:15:59.060Z,14.64
2018-09-07T08:16:59.013Z,14.67
2018-09-07T08:17:59.101Z,14.80
2018-09-07T08:18:58.988Z,14.80
2018-09-07T08:19:58.975Z,14.80
2018-09-07T08:20:58.965Z,14.79
2018-09-07T08:21:58.949Z,14.86
2018-09-07T08:22:58.937Z,14.97
2018-09-07T08:23:58.924Z,15.01
2018-09-07T08:24:58.914Z,14.86
2018-09-07T08:25:58.899Z,14.94
2018-09-07T08:26:58.888Z,15.04
2018-09-07T08:27:58.873Z,14.94
2018-09-07T08:28:58.863Z,14.98
2018-09-07T08:29:58.848Z,14.97
2018-09-07T08:30:58.836Z,14.95
2018-09-07T08:31:58.823Z,15.03
2018-09-07T08:32:58.941Z,15.03
2018-09-07T08:33:58.798Z,15.04
2018-09-07T08:34:58.786Z,15.05
2018-09-07T08:35:58.872Z,15.07
2018-09-07T08:36:58.760Z,15.05
2018-09-07T08:37:58.748Z,15.04
2018-09-07T08:38:58.735Z,15.03
2018-09-07T08:39:58.722Z,15.05
2018-09-07T08:40:58.710Z,15.09
2018-09-07T08:41:58.699Z,15.09
2018-09-07T08:42:58.686Z,15.03
2018-09-07T08:43:58.672Z,15.12
2018-09-07T08:44:58.660Z,15.07
2018-09-07T08:45:58.648Z,15.05
2018-09-07T08:46:58.638Z,15.07
2018-09-07T08:47:58.622Z,15.12
2018-09-07T08:48:58.611Z,15.09
2018-09-07T08:49:58.601Z,15.19
2018-09-07T08:50:58.589Z,15.11
2018-09-07T08:51:58.577Z,15.16
2018-09-07T08:52:58.561Z,15.03
2018-09-07T08:53:58.548Z,15.18
2018-09-07T08:54:58.577Z,15.11
2018-09-07T08:55:58.523Z,15.13
2018-09-07T08:56:58.511Z,15.09
2018-09-07T08:57:58.501Z,15.11
2018-09-07T08:58:58.487Z,15.15
2018-09-07T08:59:58.573Z,15.05
2018-09-07T09:00:58.465Z,15.05
2018-09-07T09:01:58.448Z,15.04
2018-09-07T09:02:58.437Z,14.95
2018-09-07T09:03:58.423Z,14.82
2018-09-07T09:04:58.411Z,14.78
2018-09-07T09:05:58.499Z,14.82
2018-09-07T09:06:58.387Z,14.79
2018-09-07T09:07:58.373Z,14.80
2018-09-07T09:08:58.361Z,14.78
2018-09-07T09:09:58.348Z,14.82
2018-09-07T09:10:58.338Z,14.83
2018-09-07T09:11:58.523Z,14.79
2018-09-07T09:12:58.310Z,14.82
2018-09-07T09:13:58.300Z,14.78
2018-09-07T09:14:58.289Z,14.82
2018-09-07T09:15:58.330Z,14.86
2018-09-07T09:16:58.261Z,14.79
2018-09-07T09:17:58.247Z,14.78
2018-09-07T09:18:58.234Z,14.71
2018-09-07T09:19:58.220Z,14.67
2018-09-07T09:20:58.212Z,14.72
2018-09-07T09:21:58.195Z,14.64
2018-09-07T09:22:58.183Z,14.74
2018-09-07T09:23:58.224Z,14.72
2018-09-07T09:24:58.159Z,14.74
2018-09-07T09:25:58.144Z,14.79
2018-09-07T09:26:58.132Z,14.69
2018-09-07T09:27:58.121Z,14.80
2018-09-07T09:28:58.106Z,14.78
2018-09-07T09:29:58.093Z,14.80
2018-09-07T09:30:58.080Z,14.82
2018-09-07T09:31:58.067Z,14.87
2018-09-07T09:32:58.121Z,14.94
2018-09-07T09:33:58.041Z,14.94
2018-09-07T09:34:58.030Z,14.90
2018-09-07T09:35:58.116Z,14.91
2018-09-07T09:36:58.005Z,14.93
2018-09-07T09:37:57.991Z,14.93
2018-09-07T09:38:57.980Z,14.83
2018-09-07T09:39:57.965Z,14.90
2018-09-07T09:40:57.953Z,14.86
2018-09-07T09:41:58.091Z,14.90
2018-09-07T09:42:57.929Z,14.85
2018-09-07T09:43:57.914Z,14.86
2018-09-07T09:44:57.902Z,14.86
2018-09-07T09:45:57.890Z,14.82
2018-09-07T09:46:57.877Z,14.87
2018-09-07T09:47:57.865Z,14.80
2018-09-07T09:48:57.851Z,14.85
2018-09-07T09:49:57.840Z,14.78
2018-09-07T09:50:57.828Z,14.79
2018-09-07T09:51:57.813Z,14.82
2018-09-07T09:52:57.829Z,14.66
2018-09-07T09:53:57.888Z,14.74
2018-09-07T09:54:57.775Z,14.74
2018-09-07T09:55:57.767Z,14.57
2018-09-07T09:56:57.758Z,14.57
2018-09-07T09:57:57.737Z,14.59
2018-09-07T09:58:57.723Z,14.69
2018-09-07T09:59:57.710Z,14.67
2018-09-07T10:00:57.699Z,14.67
2018-09-07T10:01:57.685Z,14.78
2018-09-07T10:02:57.674Z,14.69
2018-09-07T10:03:57.658Z,14.71
2018-09-07T10:04:57.647Z,14.78
2018-09-07T10:05:57.633Z,14.83
2018-09-07T10:06:57.626Z,14.69
2018-09-07T10:07:57.607Z,14.71
2018-09-07T10:08:57.596Z,14.69
2018-09-07T10:09:57.581Z,14.67
2018-09-07T10:10:57.570Z,14.69
2018-09-07T10:11:57.616Z,14.71
2018-09-07T10:12:57.542Z,14.72
2018-09-07T10:13:57.530Z,14.85
2018-09-07T10:14:57.517Z,14.83
2018-09-07T10:15:57.504Z,14.79
2018-09-07T10:16:57.491Z,14.94
2018-09-07T10:17:57.579Z,14.79
2018-09-07T10:18:57.493Z,14.78
2018-09-07T10:19:57.452Z,14.83
2018-09-07T10:20:57.441Z,14.90
2018-09-07T10:21:57.427Z,14.85
2018-09-07T10:22:57.417Z,14.94
2018-09-07T10:23:57.504Z,14.94
2018-09-07T10:24:57.388Z,14.93
2018-09-07T10:25:57.376Z,14.90
2018-09-07T10:26:57.364Z,14.93
2018-09-07T10:27:57.352Z,14.87
2018-09-07T10:28:57.338Z,14.93
2018-09-07T10:29:57.327Z,14.83
2018-09-07T10:30:57.313Z,14.95
2018-09-07T10:31:57.300Z,14.87
2018-09-07T10:32:57.286Z,14.91
2018-09-07T10:33:57.274Z,15.01
2018-09-07T10:34:57.308Z,15.04
2018-09-07T10:35:57.348Z,15.01
2018-09-07T10:36:57.242Z,14.98
2018-09-07T10:37:57.226Z,15.09
2018-09-07T10:38:57.212Z,15.07
2018-09-07T10:39:57.197Z,15.16
2018-09-07T10:40:57.193Z,15.12
2018-09-07T10:41:57.273Z,15.07
2018-09-07T10:42:57.161Z,15.04
2018-09-07T10:43:57.150Z,14.83
2018-09-07T10:44:57.134Z,14.83
2018-09-07T10:45:57.121Z,14.86
2018-09-07T10:46:57.109Z,14.86
2018-09-07T10:47:57.196Z,14.82
2018-09-07T10:48:57.084Z,14.85
2018-09-07T10:49:57.071Z,14.90
2018-09-07T10:50:57.058Z,14.83
2018-09-07T10:51:57.045Z,15.00
2018-09-07T10:52:57.036Z,14.95
2018-09-07T10:53:57.120Z,15.04
2018-09-07T10:54:57.007Z,15.11
2018-09-07T10:55:56.996Z,15.04
2018-09-07T10:56:56.981Z,15.12
2018-09-07T10:57:56.969Z,15.15
2018-09-07T10:58:56.956Z,15.18
2018-09-07T10:59:56.944Z,15.23
2018-09-07T11:00:56.931Z,15.20
2018-09-07T11:01:56.921Z,15.28
2018-09-07T11:02:56.906Z,15.22
2018-09-07T11:03:56.893Z,15.37
2018-09-07T11:04:56.884Z,15.41
2018-09-07T11:05:56.969Z,15.35
2018-09-07T11:06:56.855Z,15.46
2018-09-07T11:07:56.845Z,15.55
2018-09-07T11:08:56.831Z,15.43
2018-09-07T11:09:56.819Z,15.49
2018-09-07T11:10:56.807Z,15.60
2018-09-07T11:11:56.796Z,15.56
2018-09-07T11:12:56.781Z,15.56
2018-09-07T11:13:56.830Z,15.59
2018-09-07T11:14:56.758Z,15.60
2018-09-07T11:15:56.745Z,15.58
2018-09-07T11:16:56.735Z,15.62
2018-09-07T11:17:56.821Z,15.59
2018-09-07T11:18:56.711Z,15.60
2018-09-07T11:19:56.696Z,15.51
2018-09-07T11:20:56.764Z,15.60
2018-09-07T11:21:56.672Z,15.58
2018-09-07T11:22:56.663Z,15.56
2018-09-07T11:23:56.648Z,15.60
2018-09-07T11:24:56.635Z,15.66
2018-09-07T11:25:56.628Z,15.56
2018-09-07T11:26:56.611Z,15.58
2018-09-07T11:27:56.599Z,15.58
2018-09-07T11:28:56.588Z,15.52
2018-09-07T11:29:56.682Z,15.67
2018-09-07T11:30:56.563Z,15.60
2018-09-07T11:31:56.569Z,15.68
2018-09-07T11:32:56.548Z,15.64
2018-09-07T11:33:56.539Z,15.68
2018-09-07T11:34:56.538Z,15.71
2018-09-07T11:35:56.608Z,15.66
2018-09-07T11:36:56.493Z,15.67
2018-09-07T11:37:56.480Z,15.74
2018-09-07T11:38:56.479Z,15.71
2018-09-07T11:39:56.483Z,15.74
2018-09-07T11:40:56.444Z,15.81
2018-09-07T11:41:56.458Z,15.89
2018-09-07T11:42:56.433Z,15.84
2018-09-07T11:43:56.420Z,15.85
2018-09-07T11:44:56.391Z,15.88
2018-09-07T11:45:56.381Z,15.86
2018-09-07T11:46:56.390Z,15.89
2018-09-07T11:47:56.383Z,15.88
2018-09-07T11:48:56.363Z,15.88
2018-09-07T11:49:56.359Z,15.99
2018-09-07T11:50:56.353Z,16.08
2018-09-07T11:51:56.321Z,16.07
2018-09-07T11:52:56.315Z,16.14
2018-09-07T11:53:56.474Z,16.16
2018-09-07T11:54:56.293Z,16.16
2018-09-07T11:55:56.284Z,16.25
2018-09-07T11:56:56.259Z,16.34
2018-09-07T11:57:56.319Z,16.36
2018-09-07T11:58:56.246Z,16.41
2018-09-07T11:59:56.244Z,16.33
2018-09-07T12:00:56.201Z,16.50
2018-09-07T12:01:56.211Z,16.52
2018-09-07T12:02:56.208Z,16.51
2018-09-07T12:03:56.192Z,16.63
2018-09-07T12:04:56.171Z,16.66
2018-09-07T12:05:56.157Z,16.90
2018-09-07T12:06:56.161Z,16.87
2018-09-07T12:07:56.149Z,16.88
2018-09-07T12:08:56.116Z,16.96
2018-09-07T12:09:56.124Z,17.25
2018-09-07T12:10:56.105Z,17.38
2018-09-07T12:11:56.105Z,17.45
2018-09-07T12:12:56.140Z,17.58
2018-09-07T12:13:56.084Z,17.70
2018-09-07T12:14:56.060Z,17.98
2018-09-07T12:15:56.060Z,17.99
2018-09-07T12:16:56.039Z,18.31
2018-09-07T12:17:56.034Z,18.32
2018-09-07T12:18:56.015Z,18.39
2018-09-07T12:19:56.008Z,18.59
2018-09-07T12:20:55.999Z,18.66
2018-09-07T12:21:55.979Z,18.87
2018-09-07T12:22:55.954Z,19.02
2018-09-07T12:23:56.076Z,19.17
2018-09-07T12:24:55.968Z,19.25
2018-09-07T12:25:55.925Z,19.39
2018-09-07T12:26:55.916Z,19.46
2018-09-07T12:27:55.909Z,19.55
2018-09-07T12:28:55.913Z,19.68
2018-09-07T12:29:55.918Z,19.85
2018-09-07T12:30:55.876Z,19.82
2018-09-07T12:31:55.909Z,19.78
2018-09-07T12:32:55.857Z,19.97
2018-09-07T12:33:55.849Z,20.10
2018-09-07T12:34:55.842Z,20.17
2018-09-07T12:35:55.934Z,20.31
2018-09-07T12:36:55.823Z,20.46
2018-09-07T12:37:55.812Z,20.76
2018-09-07T12:38:55.806Z,20.87
2018-09-07T12:39:55.793Z,21.05
2018-09-07T12:40:55.792Z,21.21
2018-09-07T12:41:55.920Z,21.30
2018-09-07T12:42:55.769Z,21.55
2018-09-07T12:43:55.760Z,21.64
2018-09-07T12:44:55.753Z,21.89
2018-09-07T12:45:55.745Z,21.74
2018-09-07T12:46:55.736Z,21.90
2018-09-07T12:47:55.728Z,21.68
2018-09-07T12:48:55.723Z,21.64
2018-09-07T12:49:55.716Z,21.52
2018-09-07T12:50:55.707Z,21.31
2018-09-07T12:51:55.698Z,21.46